createdAt,value
2022-11-18T00:00:04.750Z,9.30
2022-11-18T00:05:06.663Z,9.30
2022-11-18T00:10:08.492Z,9.30
2022-11-18T00:15:10.174Z,9.30
2022-11-18T00:20:11.876Z,9.20
2022-11-18T00:25:13.560Z,9.20
2022-11-18T00:30:15.337Z,9.20
2022-11-18T00:35:16.993Z,9.20
2022-11-18T00:40:18.841Z,9.20
2022-11-18T00:45:21.885Z,9.20
2022-11-18T00:50:23.625Z,9.20
2022-11-18T00:55:25.326Z,9.20
2022-11-18T01:00:27.128Z,9.20
2022-11-18T01:05:28.787Z,9.20
2022-11-18T01:10:30.784Z,9.20
2022-11-18T01:15:41.545Z,9.20
2022-11-18T01:20:44.013Z,9.20
2022-11-18T01:25:47.908Z,9.20
2022-11-18T01:30:49.529Z,9.20
2022-11-18T01:35:51.202Z,9.10
2022-11-18T01:40:52.895Z,9.20
2022-11-18T01:45:54.546Z,9.00
2022-11-18T01:51:17.136Z,9.00
2022-11-18T01:56:26.623Z,9.00
2022-11-18T02:01:28.297Z,9.00
2022-11-18T02:06:29.960Z,9.00
2022-11-18T02:11:50.774Z,9.10
2022-11-18T02:17:12.010Z,9.00
2022-11-18T02:22:51.481Z,9.00
2022-11-18T02:28:24.964Z,9.10
2022-11-18T02:33:41.587Z,9.10
2022-11-18T02:38:49.123Z,9.00
2022-11-18T02:43:54.221Z,9.10
2022-11-18T02:48:56.982Z,9.10
2022-11-18T02:54:04.019Z,9.10
2022-11-18T02:59:05.856Z,9.20
2022-11-18T03:04:07.529Z,9.10
2022-11-18T03:09:31.952Z,9.10
2022-11-18T03:14:40.458Z,9.10
2022-11-18T03:19:58.982Z,9.10
2022-11-18T03:25:17.433Z,9.20
2022-11-18T03:30:21.965Z,9.20
2022-11-18T03:35:26.742Z,9.20
2022-11-18T03:40:32.376Z,9.20
2022-11-18T03:45:48.524Z,9.20
2022-11-18T03:50:59.649Z,9.20
2022-11-18T03:56:16.932Z,9.10
2022-11-18T04:01:27.540Z,9.20
2022-11-18T04:06:49.466Z,9.20
2022-11-18T04:12:04.242Z,9.20
2022-11-18T04:17:17.858Z,9.20
2022-11-18T04:22:20.189Z,9.20
2022-11-18T04:27:21.813Z,9.20
2022-11-18T04:32:23.485Z,9.20
2022-11-18T04:37:25.801Z,9.10
2022-11-18T04:42:27.893Z,9.10
2022-11-18T04:47:29.500Z,9.10
2022-11-18T04:52:31.185Z,9.10
2022-11-18T04:57:32.867Z,9.10
2022-11-18T05:02:34.525Z,9.10
2022-11-18T05:07:36.220Z,9.10
2022-11-18T05:12:49.938Z,9.10
2022-11-18T05:17:51.592Z,9.10
2022-11-18T05:22:53.232Z,9.10
2022-11-18T05:27:54.934Z,9.10
2022-11-18T05:32:56.590Z,9.00
2022-11-18T05:37:58.225Z,9.10
2022-11-18T05:43:12.013Z,9.00
2022-11-18T05:48:13.693Z,9.00
2022-11-18T05:53:16.674Z,8.90
2022-11-18T05:58:18.309Z,8.90
2022-11-18T06:03:30.515Z,8.90
2022-11-18T06:08:39.111Z,9.00
2022-11-18T06:13:50.408Z,8.90
2022-11-18T06:18:52.516Z,8.90
2022-11-18T06:23:54.542Z,8.90
2022-11-18T06:28:57.110Z,8.90
2022-11-18T06:33:58.852Z,8.90
2022-11-18T06:39:07.753Z,8.90
2022-11-18T06:44:12.369Z,8.90
2022-11-18T06:49:14.018Z,8.90
2022-11-18T06:54:15.781Z,8.80
2022-11-18T06:59:23.448Z,8.70
2022-11-18T07:04:25.282Z,8.70
2022-11-18T07:09:27.034Z,8.70
2022-11-18T07:14:28.899Z,8.60
2022-11-18T07:19:35.610Z,8.60
2022-11-18T07:24:38.057Z,8.70
2022-11-18T07:29:39.747Z,8.70
2022-11-18T07:34:41.460Z,8.70
2022-11-18T07:39:43.230Z,8.70
2022-11-18T07:44:45.046Z,8.70
2022-11-18T07:49:46.862Z,8.80
2022-11-18T07:54:48.671Z,8.80
2022-11-18T07:59:50.429Z,8.90
2022-11-18T08:04:52.241Z,8.90
2022-11-18T08:09:54.019Z,9.00
2022-11-18T08:14:55.726Z,9.00
2022-11-18T08:19:57.353Z,9.10
2022-11-18T08:24:59.062Z,9.20
2022-11-18T08:30:00.769Z,9.20
2022-11-18T08:35:06.590Z,9.20
2022-11-18T08:40:11.721Z,9.20
2022-11-18T08:45:13.517Z,9.20
2022-11-18T08:50:15.299Z,9.30
2022-11-18T08:55:17.036Z,9.20
2022-11-18T09:00:19.319Z,9.30
2022-11-18T09:05:21.113Z,9.30
2022-11-18T09:10:22.971Z,9.40
2022-11-18T09:15:26.294Z,9.50
2022-11-18T09:20:28.001Z,9.50
2022-11-18T09:25:29.697Z,9.60
2022-11-18T09:30:31.366Z,9.60
2022-11-18T09:35:33.887Z,9.70
2022-11-18T09:41:06.411Z,9.70
2022-11-18T09:46:40.971Z,9.90
2022-11-18T09:51:46.491Z,10.00
2022-11-18T09:56:50.374Z,10.10
2022-11-18T10:01:55.768Z,10.30
2022-11-18T10:06:59.079Z,10.30
2022-11-18T10:12:12.329Z,10.40
2022-11-18T10:17:32.582Z,10.50
2022-11-18T10:22:41.821Z,10.40
2022-11-18T10:27:45.869Z,10.30
2022-11-18T10:33:16.819Z,10.40
2022-11-18T10:38:20.422Z,10.40
2022-11-18T10:43:55.434Z,10.50
2022-11-18T10:49:09.283Z,10.60
2022-11-18T10:54:21.454Z,10.70
2022-11-18T10:59:47.036Z,10.80
2022-11-18T11:04:51.198Z,11.00
2022-11-18T11:10:06.548Z,11.00
2022-11-18T11:15:16.606Z,11.00
2022-11-18T11:20:21.334Z,11.10
2022-11-18T11:31:27.033Z,11.20
2022-11-18T11:37:08.343Z,11.20
2022-11-18T11:42:34.018Z,11.30
2022-11-18T11:47:56.988Z,11.40
2022-11-18T11:53:23.968Z,11.50
2022-11-18T11:58:28.656Z,11.60
2022-11-18T12:03:53.212Z,11.60
2022-11-18T12:09:12.062Z,11.60
2022-11-18T12:14:39.682Z,11.60
2022-11-18T12:19:41.865Z,11.60
2022-11-18T12:24:44.028Z,11.60
2022-11-18T12:29:48.424Z,11.60
2022-11-18T12:34:57.088Z,11.60
2022-11-18T12:40:00.464Z,11.60
2022-11-18T12:45:40.304Z,11.60
2022-11-18T12:50:53.151Z,11.60
2022-11-18T12:55:55.806Z,11.50
2022-11-18T13:01:19.338Z,11.50
2022-11-18T13:06:31.195Z,11.50
2022-11-18T13:11:47.586Z,11.50
2022-11-18T13:17:19.074Z,11.50
2022-11-18T13:22:41.536Z,11.60
2022-11-18T13:27:52.653Z,11.70
2022-11-18T13:32:58.921Z,11.80
2022-11-18T13:38:02.162Z,11.80
2022-11-18T13:43:03.971Z,11.80
2022-11-18T13:48:12.397Z,11.80
2022-11-18T13:53:37.995Z,11.90
2022-11-18T14:04:25.672Z,11.90
2022-11-18T14:09:28.323Z,12.00
2022-11-18T14:14:36.000Z,12.00
2022-11-18T14:19:38.472Z,12.00
2022-11-18T14:24:41.992Z,12.00
2022-11-18T14:29:50.494Z,11.90
2022-11-18T14:35:01.582Z,11.90
2022-11-18T14:40:03.418Z,11.90
2022-11-18T14:45:05.450Z,11.90
2022-11-18T14:50:17.112Z,11.80
2022-11-18T14:55:18.723Z,11.80
2022-11-18T15:00:20.785Z,11.70
2022-11-18T15:05:22.511Z,11.60
2022-11-18T15:10:24.218Z,11.60
2022-11-18T15:15:26.027Z,11.50
2022-11-18T15:20:27.802Z,11.40
2022-11-18T15:25:29.581Z,11.30
2022-11-18T15:30:31.301Z,11.30
2022-11-18T15:35:33.003Z,11.30
2022-11-18T15:40:35.097Z,11.20
2022-11-18T15:45:36.890Z,11.20
2022-11-18T15:50:38.566Z,11.10
2022-11-18T15:55:40.327Z,11.10
2022-11-18T16:00:45.079Z,11.00
2022-11-18T16:05:47.084Z,10.90
2022-11-18T16:11:07.680Z,10.90
2022-11-18T16:16:18.937Z,10.90
2022-11-18T16:21:21.624Z,10.80
2022-11-18T16:26:24.081Z,10.80
2022-11-18T16:31:41.815Z,10.80
2022-11-18T16:36:48.592Z,10.80
2022-11-18T16:41:55.285Z,10.70
2022-11-18T16:46:57.822Z,10.70
2022-11-18T16:51:59.505Z,10.70
2022-11-18T16:57:01.237Z,10.70
2022-11-18T17:02:03.101Z,10.70
2022-11-18T17:07:05.949Z,10.60
2022-11-18T17:12:08.035Z,10.60
2022-11-18T17:17:09.927Z,10.60
2022-11-18T17:22:11.704Z,10.60
2022-11-18T17:27:13.437Z,10.50
2022-11-18T17:32:15.214Z,10.50
2022-11-18T17:37:17.074Z,10.50
2022-11-18T17:42:22.471Z,10.40
2022-11-18T17:47:24.192Z,10.40
2022-11-18T17:52:25.922Z,10.30
2022-11-18T17:57:27.623Z,10.20
2022-11-18T18:02:29.371Z,10.20
2022-11-18T18:07:31.181Z,10.20
2022-11-18T18:12:53.338Z,10.10
2022-11-18T18:17:55.150Z,10.00
2022-11-18T18:22:57.440Z,10.00
2022-11-18T18:27:59.140Z,9.90
2022-11-18T18:33:00.894Z,9.80
2022-11-18T18:38:02.617Z,9.80
2022-11-18T18:43:04.365Z,9.70
2022-11-18T18:48:06.077Z,9.70
2022-11-18T18:53:07.740Z,9.60
2022-11-18T18:58:09.554Z,9.60
2022-11-18T19:03:11.246Z,9.60
2022-11-18T19:08:12.918Z,9.50
2022-11-18T19:13:14.709Z,9.50
2022-11-18T19:18:16.530Z,9.50
2022-11-18T19:23:19.431Z,9.50
2022-11-18T19:28:21.070Z,9.50
2022-11-18T19:33:22.786Z,9.50
2022-11-18T19:38:25.587Z,9.50
2022-11-18T19:43:27.347Z,9.40
2022-11-18T19:48:29.003Z,9.40
2022-11-18T19:53:34.759Z,9.40
2022-11-18T19:58:38.120Z,9.30
2022-11-18T20:03:40.932Z,9.30
2022-11-18T20:08:43.910Z,9.30
2022-11-18T20:13:46.077Z,9.20
2022-11-18T20:18:53.021Z,9.20
2022-11-18T20:24:03.358Z,9.20
2022-11-18T20:29:06.868Z,9.20
2022-11-18T20:34:12.294Z,9.20
2022-11-18T20:39:16.115Z,9.20
2022-11-18T20:44:17.815Z,9.20
2022-11-18T20:49:19.871Z,9.10
2022-11-18T20:54:21.791Z,9.10
2022-11-18T20:59:23.438Z,9.10
2022-11-18T21:04:25.205Z,9.10
2022-11-18T21:09:32.797Z,9.10
2022-11-18T21:14:34.667Z,9.10
2022-11-18T21:19:36.403Z,9.10
2022-11-18T21:24:38.100Z,9.00
2022-11-18T21:29:41.363Z,9.00
2022-11-18T21:34:42.996Z,9.00
2022-11-18T21:39:46.346Z,9.00
2022-11-18T21:44:49.242Z,8.90
2022-11-18T21:49:50.916Z,8.90
2022-11-18T21:54:52.616Z,8.80
2022-11-18T21:59:55.242Z,8.80
2022-11-18T22:04:58.067Z,8.80
2022-11-18T22:09:59.783Z,8.80
2022-11-18T22:15:01.536Z,8.80
2022-11-18T22:20:03.447Z,8.80
2022-11-18T22:25:05.361Z,8.80
2022-11-18T22:30:07.934Z,8.80
2022-11-18T22:35:09.786Z,8.80
2022-11-18T22:40:12.082Z,8.80
2022-11-18T22:45:17.518Z,8.80
2022-11-18T22:50:19.303Z,8.80
2022-11-18T22:55:20.983Z,8.70
2022-11-18T23:00:22.617Z,8.70
2022-11-18T23:05:24.256Z,8.70
2022-11-18T23:10:25.999Z,8.70
2022-11-18T23:15:28.833Z,8.70
2022-11-18T23:20:30.498Z,8.70
2022-11-18T23:25:32.172Z,8.70
2022-11-18T23:30:33.853Z,8.70
2022-11-18T23:35:35.526Z,8.70
2022-11-18T23:40:37.164Z,8.70
2022-11-18T23:45:38.969Z,8.70
2022-11-18T23:50:40.606Z,8.70
2022-11-18T23:55:42.200Z,8.70
